Map

Track Data

SID SEASON NUMBER BASIN SUBBASIN NAME ISO_TIME NATURE LAT LON WMO_WIND WMO_PRES WMO_AGENCY TRACK_TYPE DIST2LAND LANDFALL IFLAG USA_AGENCY USA_ATCF_ID USA_LAT USA_LON USA_RECORD USA_STATUS USA_WIND USA_PRES USA_SSHS USA_R34_NE USA_R34_SE USA_R34_SW USA_R34_NW USA_R50_NE USA_R50_SE USA_R50_SW USA_R50_NW USA_R64_NE USA_R64_SE USA_R64_SW USA_R64_NW USA_POCI USA_ROCI USA_RMW USA_EYE TOKYO_LAT TOKYO_LON TOKYO_GRADE TOKYO_WIND TOKYO_PRES TOKYO_R50_DIR TOKYO_R50_LONG TOKYO_R50_SHORT TOKYO_R30_DIR TOKYO_R30_LONG TOKYO_R30_SHORT TOKYO_LAND CMA_LAT CMA_LON CMA_CAT CMA_WIND CMA_PRES HKO_LAT HKO_LON HKO_CAT HKO_WIND HKO_PRES NEWDELHI_LAT NEWDELHI_LON NEWDELHI_GRADE NEWDELHI_WIND NEWDELHI_PRES NEWDELHI_CI NEWDELHI_DP NEWDELHI_POCI REUNION_LAT REUNION_LON REUNION_TYPE REUNION_WIND REUNION_PRES REUNION_TNUM REUNION_CI REUNION_RMW REUNION_R34_NE REUNION_R34_SE REUNION_R34_SW REUNION_R34_NW REUNION_R50_NE REUNION_R50_SE REUNION_R50_SW REUNION_R50_NW REUNION_R64_NE REUNION_R64_SE REUNION_R64_SW REUNION_R64_NW BOM_LAT BOM_LON BOM_TYPE BOM_WIND BOM_PRES BOM_TNUM BOM_CI BOM_RMW BOM_R34_NE BOM_R34_SE BOM_R34_SW BOM_R34_NW BOM_R50_NE BOM_R50_SE BOM_R50_SW BOM_R50_NW BOM_R64_NE BOM_R64_SE BOM_R64_SW BOM_R64_NW BOM_ROCI BOM_POCI BOM_EYE BOM_POS_METHOD BOM_PRES_METHOD NADI_LAT NADI_LON NADI_CAT NADI_WIND NADI_PRES WELLINGTON_LAT WELLINGTON_LON WELLINGTON_WIND WELLINGTON_PRES DS824_LAT DS824_LON DS824_STAGE DS824_WIND DS824_PRES TD9636_LAT TD9636_LON TD9636_STAGE TD9636_WIND TD9636_PRES TD9635_LAT TD9635_LON TD9635_WIND TD9635_PRES TD9635_ROCI NEUMANN_LAT NEUMANN_LON NEUMANN_CLASS NEUMANN_WIND NEUMANN_PRES MLC_LAT MLC_LON MLC_CLASS MLC_WIND MLC_PRES USA_GUST BOM_GUST BOM_GUST_PER REUNION_GUST REUNION_GUST_PER USA_SEAHGT USA_SEARAD_NE USA_SEARAD_SE USA_SEARAD_SW USA_SEARAD_NW STORM_SPEED STORM_DIR
1980092S15183 1980 32 SP MM WALLY 1980-04-01 00:00:00 TS -15.2000 182.500 main 300 275 O________OO_O_ jtwc_sh SH281980 -15.2000 -177.500 30 -1 -15.2000 182.500 TC 30 -15.2000 -177.500 1 30 -15.2000 -177.500 TC 30 6 288
1980092S15183 1980 32 SP MM WALLY 1980-04-01 03:00:00 TS -15.1037 182.198 main 275 252 P________PP_P_ SH281980 -15.0976 -177.798 30 -1 -15.0976 -177.798 TC 30 -15.1222 -177.817 1 -15.0976 -177.798 TC 30 6 288
1980092S15183 1980 32 SP MM WALLY 1980-04-01 06:00:00 TS -15.0088 181.893 main 252 233 O________OP_O_ jtwc_sh SH281980 -15.0000 -178.100 30 -1 -15.0000 181.900 TC 30 -15.0354 -178.128 1 -15.0000 -178.100 TC 30 6 288
1980092S15183 1980 32 SP MM WALLY 1980-04-01 09:00:00 TS -14.9133 181.588 main 233 216 P________PP_P_ SH281980 -14.9075 -178.407 30 -1 -14.9075 -178.407 TC 30 -14.9308 -178.424 1 -14.9075 -178.407 TC 30 6 290
1980092S15183 1980 32 SP MM WALLY 1980-04-01 12:00:00 TS -14.8000 181.300 main 216 205 O________OO_O_ jtwc_sh SH281980 -14.8000 -178.700 30 -1 -14.8000 181.300 TC 30 -14.8000 -178.700 1 -14.8000 -178.700 TC 30 6 296
1980092S15183 1980 32 SP MM WALLY 1980-04-01 15:00:00 TS -14.6479 181.033 main 214 208 P________PP_P_ SH281980 -14.6500 -178.973 30 -1 -14.6500 -178.973 TC 30 -14.6415 -178.949 1 -14.6500 -178.973 TC 30 6 303
1980092S15183 1980 32 SP MM WALLY 1980-04-01 18:00:00 TS -14.4956 180.808 main 213 213 O________OP_O_ jtwc_sh SH281980 -14.5000 -179.200 30 -1 -14.5000 180.800 TC 30 -14.4824 -179.168 1 -14.5000 -179.200 TC 30 5 306
1980092S15183 1980 32 SP MM WALLY 1980-04-01 21:00:00 TS -14.3611 180.633 main 215 215 P________PP_P_ SH281980 -14.3625 -179.372 30 -1 -14.3625 -179.372 TC 30 -14.3571 -179.352 1 -14.3625 -179.372 TC 30 4 303
1980092S15183 1980 32 SP MM WALLY 1980-04-02 00:00:00 TS -14.3000 180.500 30 997 wellington main 222 208 O_______OOO_O_ jtwc_sh SH281980 -14.3000 -179.500 30 -1 -14.3000 -179.500 30 997 -14.3000 180.500 TC 30 -14.3000 -179.500 1 30 -14.3000 -179.500 TC 30 3 266
1980092S15183 1980 32 SP MM WALLY 1980-04-02 03:00:00 TS -14.3800 180.371 main 208 195 P_______PPP_P_ SH281980 -14.3625 -179.615 30 -1 -14.5144 -179.781 30 997 -14.3625 -179.615 TC 30 -14.3652 -179.595 1 -14.3625 -179.615 TC 30 3 226
1980092S15183 1980 32 SP MM WALLY 1980-04-02 06:00:00 TS -14.5330 180.254 main 195 170 O_______POP_O_ jtwc_sh SH281980 -14.5000 -179.700 30 -1 -14.7129 179.951 30 997 -14.5000 180.300 TC 30 -14.4973 -179.657 1 -14.5000 -179.700 TC 30 4 213
1980092S15183 1980 32 SP MM WALLY 1980-04-02 09:00:00 TS -14.7016 180.157 main 170 158 P_______PPP_P_ SH281980 -14.6575 -179.735 32 -1 -14.8799 179.707 30 997 -14.6575 -179.735 TC 32 -14.6558 -179.716 1 -14.6575 -179.735 TC 32 4 211
1980092S15183 1980 32 SP MM WALLY 1980-04-02 12:00:00 TS -14.8400 180.060 30 997 wellington main 158 145 O_______OOO_O_ jtwc_sh SH281980 -14.8000 -179.800 35 0 -15.0000 179.500 30 997 -14.8000 180.200 TC 35 -14.8000 -179.800 1 -14.8000 -179.800 TC 35 3 232
1980092S15183 1980 32 SP MM WALLY 1980-04-02 15:00:00 TS -14.9070 179.884 main 145 145 P_______PPP_P_ SH281980 -14.8650 -179.985 35 0 -15.0639 179.339 30 997 -14.8650 -179.985 TC 35 -14.8757 -179.962 1 -14.8650 -179.985 TC 35 4 254
1980092S15183 1980 32 SP MM WALLY 1980-04-02 18:00:00 TS -14.9435 179.692 main 145 134 O_______POP_O_ jtwc_sh SH281980 -14.9000 179.800 35 0 -15.0873 179.212 30 997 -14.9000 179.800 TC 35 -14.9302 179.850 1 -14.9000 179.800 TC 35 4 258
1980092S15183 1980 32 SP MM WALLY 1980-04-02 21:00:00 TS -14.9823 179.530 main 138 138 P_______PPP_P_ SH281980 -14.9500 179.628 37 0 -15.0921 179.104 30 997 -14.9500 179.628 TC 37 -14.9695 179.663 1 -14.9500 179.628 TC 37 3 255
1980092S15183 1980 32 SP MM WALLY 1980-04-03 00:00:00 TS -15.0200 179.400 30 997 wellington main 140 134 O_______OOO_O_ jtwc_sh SH281980 -15.0000 179.500 40 0 -15.1000 179.000 30 997 -15.0000 179.500 TC 40 -15.0000 179.500 2 40 -15.0000 179.500 TC 40 2 247
1980092S15183 1980 32 SP MM WALLY 1980-04-03 03:00:00 TS -15.0687 179.319 main 134 134 P_______PPP_P_ SH281980 -15.0575 179.442 40 0 -15.1428 178.871 31 996 -15.0575 179.442 TC 40 -15.0280 179.396 2 -15.0575 179.442 TC 40 2 238
1980092S15183 1980 32 SP MM WALLY 1980-04-03 06:00:00 TS -15.1085 179.252 main 134 134 O_______POP_O_ jtwc_sh SH281980 -15.1000 179.400 40 0 -15.1925 178.743 32 996 -15.1000 179.400 TC 40 -15.0499 179.320 2 -15.1000 179.400 TC 40 2 251
1980092S15183 1980 32 SP MM WALLY 1980-04-03 09:00:00 TS -15.1236 179.155 main 138 138 P_______PPP_P_ SH281980 -15.1000 179.300 42 0 -15.2459 178.618 33 995 -15.1000 179.300 TC 42 -15.0718 179.259 2 -15.1000 179.300 TC 42 2 260
1980092S15183 1980 32 SP MM WALLY 1980-04-03 12:00:00 TS -15.1400 179.060 35 995 wellington main 140 134 O_______OOO_O_ jtwc_sh SH281980 -15.1000 179.200 45 0 -15.3000 178.500 35 995 -15.1000 179.200 TC 45 -15.1000 179.200 2 -15.1000 179.200 TC 45 2 251
1980092S15183 1980 32 SP MM WALLY 1980-04-03 15:00:00 TS -15.1759 178.998 main 134 134 P_______PPP_P_ SH281980 -15.1425 179.150 45 0 -15.3337 178.385 35 995 -15.1425 179.150 TC 45 -15.1183 179.153 2 -15.1425 179.150 TC 45 1 234
1980092S15183 1980 32 SP MM WALLY 1980-04-03 18:00:00 TS -15.2235 178.936 main 138 129 O_______POP_O_ jtwc_sh SH281980 -15.2000 179.100 45 0 -15.3700 178.277 35 995 -15.2000 179.100 TC 45 -15.1473 179.102 2 -15.2000 179.100 TC 45 2 237
1980092S15183 1980 32 SP MM WALLY 1980-04-03 21:00:00 TS -15.2613 178.859 main 129 129 P_______PPP_P_ SH281980 -15.2275 179.030 47 0 -15.4212 178.182 35 995 -15.2275 179.030 TC 47 -15.2026 179.025 2 -15.2275 179.030 TC 47 2 239
1980092S15183 1980 32 SP MM WALLY 1980-04-04 00:00:00 TS -15.3400 178.740 35 995 wellington main 138 119 O_______OOO_O_ jtwc_sh SH281980 -15.3000 178.900 50 0 -15.5000 178.100 35 995 -15.3000 178.900 TC 50 -15.3000 178.900 2 50 -15.3000 178.900 TC 50 4 232
1980092S15183 1980 32 SP MM WALLY 1980-04-04 03:00:00 TS -15.4990 178.543 main 124 110 P_______PPP_P_ SH281980 -15.4775 178.673 50 0 -15.6090 178.032 35 995 -15.4775 178.673 TC 50 -15.4531 178.668 2 -15.4775 178.673 TC 50 5 229
1980092S15183 1980 32 SP MM WALLY 1980-04-04 06:00:00 TS -15.6991 178.314 main 113 99 O_______POP_O_ jtwc_sh SH281980 -15.7000 178.400 50 0 -15.7475 177.977 35 995 -15.7000 178.400 TC 50 -15.6480 178.393 2 -15.7000 178.400 TC 50 6 228
1980092S15183 1980 32 SP MM WALLY 1980-04-04 09:00:00 TS -15.8962 178.083 main 99 92 P_______PPP_P_ SH281980 -15.9000 178.120 50 0 -15.9122 177.935 35 995 -15.9000 178.120 TC 50 -15.8688 178.121 2 -15.9000 178.120 TC 50 6 225
1980092S15183 1980 32 SP MM WALLY 1980-04-04 12:00:00 TS -16.1000 177.900 35 995 wellington main 92 85 O_______OOO_O_ jtwc_sh SH281980 -16.1000 177.900 50 0 -16.1000 177.900 35 995 -16.1000 177.900 TC 50 -16.1000 177.900 2 -16.1000 177.900 TC 50 5 213
1980092S15183 1980 32 SP MM WALLY 1980-04-04 15:00:00 TS -16.2769 177.822 main 87 77 P_______PPP_P_ SH281980 -16.2924 177.820 50 0 -16.2466 177.856 33 995 -16.2924 177.820 TC 50 -16.2608 177.792 2 -16.2924 177.820 TC 50 4 195
1980092S15183 1980 32 SP MM WALLY 1980-04-04 18:00:00 TS -16.4720 177.792 main 77 74 O_______POP_O_ jtwc_sh SH281980 -16.5000 177.800 50 0 -16.4226 177.820 32 996 -16.5000 177.800 TC 50 -16.4374 177.739 2 -16.5000 177.800 TC 50 4 189
1980092S15183 1980 32 SP MM WALLY 1980-04-04 21:00:00 TS -16.6940 177.753 main 74 54 P_______PPP_P_ SH281980 -16.7125 177.750 50 0 -16.6622 177.800 31 996 -16.7125 177.750 TC 50 -16.6702 177.717 2 -16.7125 177.750 TC 50 5 187
1980092S15183 1980 32 SP MM WALLY 1980-04-05 00:00:00 TS -17.0000 177.720 30 997 wellington main 54 11 O_______OOO_O_ jtwc_sh SH281980 -17.0000 177.700 50 0 -17.0000 177.800 30 997 -17.0000 177.700 TC 50 -17.0000 177.700 2 50 -17.0000 177.700 TC 50 7 188
1980092S15183 1980 32 SP MM WALLY 1980-04-05 03:00:00 TS -17.4038 177.656 main 11 0 P_______PPP_P_ SH281980 -17.3825 177.650 50 0 -17.4376 177.765 30 997 -17.3825 177.650 TC 50 -17.4336 177.563 2 -17.3825 177.650 TC 50 9 187
1980092S15183 1980 32 SP MM WALLY 1980-04-05 06:00:00 TS -17.9293 177.600 main 0 0 O_______POP_O_ jtwc_sh SH281980 -17.9000 177.600 50 0 -17.9771 177.761 30 997 -17.9000 177.600 TC 50 -17.9696 177.440 2 -17.9000 177.600 TC 50 12 185
1980092S15183 1980 32 SP MM WALLY 1980-04-05 09:00:00 TS -18.5637 177.543 main 45 45 P_______PPP_P_ SH281980 -18.5400 177.498 47 0 -18.6030 177.826 30 997 -18.5400 177.498 TC 47 -18.5957 177.396 2 -18.5400 177.498 TC 47 14 0
1980092S15183 1980 32 SP MM WALLY 1980-04-05 12:00:00 TS -19.3000 177.600 30 997 wellington main 116 116 O_______OOO_O_ jtwc_sh SH281980 -19.3000 177.500 45 0 -19.3000 178.000 30 997 -19.3000 177.500 TC 45 -19.3000 177.500 2 -19.3000 177.500 TC 45 16 170
1980092S15183 1980 32 SP MM WALLY 1980-04-05 15:00:00 TS -20.1014 177.822 main 201 201 P_______PPP_P_ SH281980 -20.1347 177.688 45 0 -20.0384 178.263 30 997 -20.1347 177.688 TC 45 -20.0647 177.781 2 -20.1347 177.688 TC 45 18 160
1980092S15183 1980 32 SP MM WALLY 1980-04-05 18:00:00 TS -20.9469 178.234 main 290 290 O_______POP_O_ jtwc_sh SH281980 -21.0000 178.100 45 0 -20.8382 178.648 30 997 -21.0000 178.100 TC 45 -20.8964 178.223 2 -21.0000 178.100 TC 45 19 150
1980092S15183 1980 32 SP MM WALLY 1980-04-05 21:00:00 TS -21.7739 178.836 main 396 396 P_______PPP_P_ SH281980 -21.8153 178.740 42 0 -21.6689 179.159 30 997 -21.8153 178.740 TC 42 -21.7548 178.804 2 -21.8153 178.740 TC 42 21 143
1980092S15183 1980 32 SP MM WALLY 1980-04-06 00:00:00 TS -22.5800 179.560 30 997 wellington main 502 502 O_______OOO_O_ jtwc_sh SH281980 -22.6000 179.500 40 0 -22.5000 179.800 30 997 -22.6000 179.500 TC 40 -22.6000 179.500 2 40 -22.6000 179.500 TC 40 21 141
1980092S15183 1980 32 SP MM WALLY 1980-04-06 03:00:00 TS -23.3687 180.226 main 606 606 P_______PPP_P_ SH281980 -23.3564 -179.851 37 0 -23.3912 -179.475 30 997 -23.3564 -179.851 TC 37 -23.3832 -179.845 2 37 -23.3564 -179.851 TC 37 21 140
1980092S15183 1980 32 SP MM WALLY 1980-04-06 06:00:00 TS -24.1406 181.002 main 710 710 O_______POP_O_ jtwc_sh SH281980 -24.1000 -179.100 35 0 -24.2585 -178.618 30 997 -24.1000 180.900 TC 35 -24.1443 -179.071 2 35 -24.1000 -179.100 TC 35 22 134
1980092S15183 1980 32 SP MM WALLY 1980-04-06 09:00:00 TS -24.8899 181.933 main 829 829 P_______PPP_P_ SH281980 -24.8482 -178.183 32 -1 -25.0216 -177.651 30 997 -24.8482 -178.183 TC 32 -24.8835 -178.137 2 32 -24.8482 -178.183 TC 32 24 128
1980092S15183 1980 32 SP MM WALLY 1980-04-06 12:00:00 TS -25.6000 183.080 30 997 wellington main 953 953 O_______OOO_O_ jtwc_sh SH281980 -25.6000 -177.000 30 -1 -25.6000 -176.600 30 997 -25.6000 183.000 TC 30 -25.6000 -177.000 1 30 -25.6000 -177.000 TC 30 28 121
1980092S15183 1980 32 SP MM WALLY 1980-04-06 15:00:00 TS -26.2951 184.552 main 1099 1099 P_______PPP_P_ SH281980 -26.3807 -175.483 30 -1 -25.9593 -175.208 30 997 -26.3807 -175.483 TC 30 -26.3742 -175.585 1 30 -26.3807 -175.483 TC 30 31 115
1980092S15183 1980 32 SP MM WALLY 1980-04-06 18:00:00 TS -26.9044 186.166 main 1248 1248 O_______POP_O_ jtwc_sh SH281980 -27.1000 -173.800 30 -1 -26.1181 -173.797 30 997 -27.1000 186.200 TC 30 -27.1038 -173.971 1 30 -27.1000 -173.800 TC 30 30 112
1980092S15183 1980 32 SP MM WALLY 1980-04-06 21:00:00 TS -27.4081 187.717 main 1388 1388 P_______PPP_P_ SH281980 -27.7316 -172.170 30 -1 -26.1159 -172.638 30 997 -27.7316 -172.170 TC 30 -27.7302 -172.270 1 30 -27.7316 -172.170 TC 30 28 108
1980092S15183 1980 32 SP MM WALLY 1980-04-07 00:00:00 TS -27.7600 189.120 30 997 wellington main 1474 1474 O_______OOO_O_ jtwc_sh SH281980 -28.2000 -170.600 30 -1 -26.0000 -172.000 30 997 -28.2000 189.400 TC 30 -28.2000 -170.600 1 30 -28.2000 -170.600 TC 30 23 103
1980092S15183 1980 32 SP MM WALLY 1980-04-07 03:00:00 TS -27.9447 190.255 main 1542 1533 P_______PPP_P_ SH281980 -28.4800 -169.168 30 -1 -25.8142 -172.070 30 997 -28.4800 -169.168 TC 30 -28.4694 -169.149 1 -28.4800 -169.168 TC 30 21 100
1980092S15183 1980 32 SP MM WALLY 1980-04-07 06:00:00 TS -28.1208 191.431 main 1599 1599 O_______POP_O_ jtwc_sh SH281980 -28.6000 -167.800 30 -1 -25.5781 -172.725 30 997 -28.6000 192.200 TC 30 -28.5904 -167.759 1 -28.6000 -167.800 TC 30 22 98
1980092S15183 1980 32 SP MM WALLY 1980-04-07 09:00:00 TS -28.2560 192.774 main 1683 1683 P_______PPP_P_ SH281980 -28.6281 -166.414 30 -1 -25.3027 -173.768 30 997 -28.6281 -166.414 TC 30 -28.6166 -166.389 1 -28.6281 -166.414 TC 30 26 96
1980092S15183 1980 32 SP MM WALLY 1980-04-07 12:00:00 TS -28.3882 194.412 30 997 wellington main 1769 1769 O_______OOO_O_ jtwc_sh SH281980 -28.6000 -165.000 30 -1 -25.0000 -175.000 30 997 -28.6000 195.000 TC 30 -28.6000 -165.000 1 -28.6000 -165.000 TC 30 33 96
1980092S15183 1980 32 SP MM WALLY 1980-04-07 15:00:00 TS -28.6000 196.474 main 1882 1882 P________PP_P_ SH281980 -28.6063 -163.515 30 -1 -28.6063 -163.515 TC 30 -28.5812 -163.556 1 -28.6063 -163.515 TC 30 31 94
1980092S15183 1980 32 SP MM WALLY 1980-04-07 18:00:00 TS -28.5906 197.984 main 1961 1961 O________OP_O_ jtwc_sh SH281980 -28.6000 -162.000 30 -1 -28.6000 198.000 TC 30 -28.5624 -162.064 1 -28.6000 -162.000 TC 30 27 89
1980092S15183 1980 32 SP MM WALLY 1980-04-07 21:00:00 TS -28.5566 199.494 main 2048 2048 P________PP_P_ SH281980 -28.5630 -160.495 30 -1 -28.5630 -160.495 TC 30 -28.5373 -160.540 1 -28.5630 -160.495 TC 30 26 88
1980092S15183 1980 32 SP MM WALLY 1980-04-08 00:00:00 TS -28.5000 201.000 main 2135 O________OO_O_ jtwc_sh SH281980 -28.5000 -159.000 30 -1 -28.5000 201.000 TC 30 -28.5000 -159.000 1 30 -28.5000 -159.000 TC 30 26 88

Digital Typhoon Data and Search

About IBTrACS Database

This database is a web-friendly format of International Best Track Archive for Climate Stewardship (IBTrACS), a global best track data archive curated by NOAA dating back to 1842.

Updated: 2021-12-03